Terminal Aerodrome Forecast
Issued by NWS Dodge City, KS

Home | Current Version | Previous Version | Graphics & Text | Print | Product List | Glossary Off
Versions: 1 2 3 4 5 6 7 8 9 10 11 12 13 14 15 16 17 18 19 20 21 22 23 24 25 26 27 28 29 30 31 32 33 34 35 36 37 38 39 40 41 42 43 44 45 46 47 48 49 50

714
FTUS43 KDDC 300911 AAD
TAFDDC
TAF AMD
KDDC 300911Z 3009/0106 31015KT P6SM OVC006
     FM301400 32010G20KT P6SM BKN040
     FM301800 32015G25KT P6SM BKN050
     FM010000 33012KT P6SM SCT050=

USA.gov is the U.S. government's official web portal to all federal, state and local government web resources and services.